createdAt,value
2024-05-09T00:00:58.402Z,80.13
2024-05-09T00:01:58.405Z,80.13
2024-05-09T00:02:58.456Z,80.31
2024-05-09T00:03:58.560Z,80.42
2024-05-09T00:04:58.615Z,80.49
2024-05-09T00:05:58.587Z,80.50
2024-05-09T00:06:58.581Z,80.18
2024-05-09T00:07:58.656Z,80.09
2024-05-09T00:08:58.664Z,80.13
2024-05-09T00:09:58.697Z,79.94
2024-05-09T00:10:58.832Z,79.81
2024-05-09T00:11:58.909Z,79.69
2024-05-09T00:12:58.818Z,79.41
2024-05-09T00:13:58.972Z,79.36
2024-05-09T00:14:58.945Z,79.51
2024-05-09T00:15:59.038Z,79.51
2024-05-09T00:16:59.275Z,79.51
2024-05-09T00:17:59.354Z,79.56
2024-05-09T00:18:59.451Z,79.65
2024-05-09T00:19:59.424Z,79.57
2024-05-09T00:20:59.482Z,79.58
2024-05-09T00:21:59.516Z,79.46
2024-05-09T00:22:59.608Z,79.49
2024-05-09T00:23:59.676Z,79.47
2024-05-09T00:24:59.707Z,79.34
2024-05-09T00:25:59.799Z,79.33
2024-05-09T00:26:59.797Z,79.20
2024-05-09T00:27:59.881Z,79.07
2024-05-09T00:28:59.997Z,79.16
2024-05-09T00:30:00.024Z,79.28
2024-05-09T00:31:00.056Z,79.24
2024-05-09T00:32:00.357Z,79.13
2024-05-09T00:33:00.348Z,79.04
2024-05-09T00:34:00.382Z,79.09
2024-05-09T00:35:00.312Z,79.11
2024-05-09T00:36:00.329Z,79.07
2024-05-09T00:37:01.181Z,79.04
2024-05-09T00:38:00.813Z,78.99
2024-05-09T00:39:00.577Z,78.86
2024-05-09T00:40:00.631Z,78.81
2024-05-09T00:41:00.875Z,78.78
2024-05-09T00:42:00.820Z,78.81
2024-05-09T00:43:00.918Z,78.88
2024-05-09T00:44:01.076Z,78.88
2024-05-09T00:45:01.103Z,78.84
2024-05-09T00:46:01.206Z,78.82
2024-05-09T00:47:01.319Z,78.85
2024-05-09T00:48:01.658Z,78.85
2024-05-09T00:49:01.650Z,78.86
2024-05-09T00:50:01.631Z,78.80
2024-05-09T00:51:01.710Z,78.71
2024-05-09T00:52:01.706Z,78.62
2024-05-09T00:53:01.775Z,78.61
2024-05-09T00:54:01.793Z,78.43
2024-05-09T00:55:01.838Z,78.49
2024-05-09T00:56:01.951Z,78.57
2024-05-09T00:57:01.991Z,78.50
2024-05-09T00:58:01.996Z,78.39
2024-05-09T00:59:02.065Z,78.37
2024-05-09T01:00:02.109Z,78.30
2024-05-09T01:01:02.248Z,78.22
2024-05-09T01:02:02.390Z,77.91
2024-05-09T01:03:02.603Z,77.88
2024-05-09T01:04:02.439Z,77.80
2024-05-09T01:05:02.506Z,77.96
2024-05-09T01:06:02.486Z,77.83
2024-05-09T01:07:02.445Z,77.90
2024-05-09T01:08:02.761Z,77.97
2024-05-09T01:09:02.553Z,77.94
2024-05-09T01:10:03.228Z,77.79
2024-05-09T01:11:02.941Z,77.70
2024-05-09T01:12:02.976Z,77.71
2024-05-09T01:13:03.003Z,77.81
2024-05-09T01:14:03.015Z,77.74
2024-05-09T01:15:03.090Z,77.72
2024-05-09T01:16:03.164Z,77.58
2024-05-09T01:17:03.353Z,77.61
2024-05-09T01:18:03.546Z,77.80
2024-05-09T01:19:03.598Z,77.80
2024-05-09T01:20:06.246Z,77.87
2024-05-09T01:21:03.780Z,77.84
2024-05-09T01:22:03.837Z,77.79
2024-05-09T01:23:04.026Z,77.78
2024-05-09T01:24:03.965Z,77.72
2024-05-09T01:25:04.084Z,77.71
2024-05-09T01:26:04.157Z,77.59
2024-05-09T01:27:04.150Z,77.64
2024-05-09T01:28:04.289Z,77.71
2024-05-09T01:29:04.353Z,77.80
2024-05-09T01:30:09.128Z,77.83
2024-05-09T01:31:04.379Z,77.76
2024-05-09T01:32:04.577Z,77.80
2024-05-09T01:33:05.225Z,77.70
2024-05-09T01:34:04.454Z,77.60
2024-05-09T01:35:04.448Z,77.40
2024-05-09T01:36:04.487Z,77.36
2024-05-09T01:37:04.487Z,77.26
2024-05-09T01:38:04.626Z,77.23
2024-05-09T01:39:04.524Z,77.16
2024-05-09T01:40:07.371Z,77.09
2024-05-09T01:41:04.620Z,77.06
2024-05-09T01:42:04.596Z,77.07
2024-05-09T01:43:04.664Z,77.04
2024-05-09T01:44:04.736Z,77.10
2024-05-09T01:45:04.670Z,76.98
2024-05-09T01:46:04.716Z,76.99
2024-05-09T01:47:04.772Z,77.18
2024-05-09T01:48:05.076Z,77.21
2024-05-09T01:49:04.893Z,77.15
2024-05-09T01:50:08.717Z,77.17
2024-05-09T01:51:04.980Z,77.13
2024-05-09T01:52:04.841Z,77.24
2024-05-09T01:53:04.955Z,77.45
2024-05-09T01:54:04.882Z,77.54
2024-05-09T01:55:06.602Z,77.48
2024-05-09T01:56:04.997Z,77.48
2024-05-09T01:57:04.965Z,77.55
2024-05-09T01:58:05.085Z,77.56
2024-05-09T01:59:05.080Z,77.54
2024-05-09T02:00:07.742Z,77.65
2024-05-09T02:01:05.197Z,77.65
2024-05-09T02:02:05.401Z,77.65
2024-05-09T02:03:05.393Z,77.64
2024-05-09T02:04:05.393Z,77.71
2024-05-09T02:05:05.478Z,77.92
2024-05-09T02:06:05.497Z,78.01
2024-05-09T02:07:05.335Z,78.28
2024-05-09T02:08:05.429Z,78.38
2024-05-09T02:09:05.375Z,78.43
2024-05-09T02:10:13.582Z,78.25
2024-05-09T02:11:05.513Z,78.19
2024-05-09T02:12:05.706Z,78.00
2024-05-09T02:13:05.495Z,77.76
2024-05-09T02:14:05.573Z,77.79
2024-05-09T02:15:05.552Z,77.69
2024-05-09T02:16:05.598Z,77.55
2024-05-09T02:17:05.668Z,77.67
2024-05-09T02:18:05.854Z,77.72
2024-05-09T02:19:06.522Z,77.77
2024-05-09T02:20:06.287Z,77.81
2024-05-09T02:21:05.828Z,77.87
2024-05-09T02:22:05.835Z,77.88
2024-05-09T02:23:06.406Z,77.80
2024-05-09T02:24:05.888Z,77.78
2024-05-09T02:25:05.933Z,77.80
2024-05-09T02:26:06.054Z,77.87
2024-05-09T02:27:06.121Z,78.03
2024-05-09T02:28:06.068Z,78.31
2024-05-09T02:29:06.172Z,78.58
2024-05-09T02:30:12.095Z,78.78
2024-05-09T02:31:06.182Z,78.89
2024-05-09T02:32:06.266Z,78.89
2024-05-09T02:33:06.479Z,79.06
2024-05-09T02:34:06.427Z,79.10
2024-05-09T02:35:06.379Z,79.03
2024-05-09T02:36:06.407Z,79.00
2024-05-09T02:37:06.522Z,79.10
2024-05-09T02:38:06.602Z,78.99
2024-05-09T02:39:06.501Z,78.93
2024-05-09T02:40:09.258Z,78.83
2024-05-09T02:41:06.588Z,78.72
2024-05-09T02:42:06.582Z,78.57
2024-05-09T02:43:06.931Z,78.62
2024-05-09T02:44:06.684Z,78.62
2024-05-09T02:45:06.677Z,78.55
2024-05-09T02:46:06.736Z,78.49
2024-05-09T02:47:06.954Z,78.46
2024-05-09T02:48:07.115Z,78.41
2024-05-09T02:49:06.898Z,78.45
2024-05-09T02:50:08.224Z,78.55
2024-05-09T02:51:07.244Z,78.60
2024-05-09T02:52:07.106Z,78.64
2024-05-09T02:53:07.412Z,78.80
2024-05-09T02:54:07.240Z,79.05
2024-05-09T02:55:07.302Z,79.26
2024-05-09T02:56:07.517Z,79.40
2024-05-09T02:57:07.547Z,79.47
2024-05-09T02:58:07.617Z,79.41
2024-05-09T02:59:07.742Z,79.38
2024-05-09T03:00:12.258Z,79.50
2024-05-09T03:01:07.868Z,79.45
2024-05-09T03:02:07.958Z,79.35
2024-05-09T03:03:08.967Z,79.39
2024-05-09T03:04:08.159Z,79.31
2024-05-09T03:05:08.077Z,79.10
2024-05-09T03:06:08.079Z,79.07
2024-05-09T03:07:08.143Z,79.08
2024-05-09T03:08:08.372Z,79.03
2024-05-09T03:09:08.218Z,79.04
2024-05-09T03:10:18.048Z,79.14
2024-05-09T03:11:08.467Z,79.10
2024-05-09T03:12:08.486Z,79.10
2024-05-09T03:13:08.607Z,79.00
2024-05-09T03:14:08.457Z,78.95
2024-05-09T03:15:08.491Z,78.92
2024-05-09T03:16:08.543Z,78.87
2024-05-09T03:17:08.729Z,78.84
2024-05-09T03:18:08.827Z,78.84
2024-05-09T03:19:08.817Z,78.75
2024-05-09T03:20:17.292Z,78.76
2024-05-09T03:21:08.992Z,78.86
2024-05-09T03:22:08.836Z,78.95
2024-05-09T03:23:10.031Z,79.08
2024-05-09T03:24:09.104Z,79.39
2024-05-09T03:25:09.226Z,79.78
2024-05-09T03:26:09.402Z,79.93
2024-05-09T03:27:09.478Z,79.95
2024-05-09T03:28:09.566Z,80.18
2024-05-09T03:29:09.765Z,80.31
2024-05-09T03:30:10.047Z,80.18
2024-05-09T03:31:09.891Z,80.06
2024-05-09T03:32:10.105Z,79.98
2024-05-09T03:33:10.415Z,79.90
2024-05-09T03:34:10.174Z,79.93
2024-05-09T03:35:10.268Z,79.92
2024-05-09T03:36:11.408Z,80.00
2024-05-09T03:37:10.324Z,79.75
2024-05-09T03:38:10.498Z,79.69
2024-05-09T03:39:10.452Z,79.57
2024-05-09T03:40:17.568Z,79.51
2024-05-09T03:41:10.563Z,79.39
2024-05-09T03:42:10.582Z,79.39
2024-05-09T03:43:10.591Z,79.38
2024-05-09T03:44:10.696Z,79.29
2024-05-09T03:45:10.678Z,79.29
2024-05-09T03:46:10.726Z,79.18
2024-05-09T03:47:10.812Z,79.38
2024-05-09T03:48:11.407Z,79.54
2024-05-09T03:49:10.984Z,79.88
2024-05-09T03:50:18.280Z,80.19
2024-05-09T03:51:11.187Z,80.45
2024-05-09T03:52:11.118Z,80.61
2024-05-09T03:53:11.396Z,80.61
2024-05-09T03:54:11.266Z,80.56
2024-05-09T03:55:11.332Z,80.42
2024-05-09T03:56:11.395Z,80.38
2024-05-09T03:57:11.414Z,80.37
2024-05-09T03:58:11.508Z,80.44
2024-05-09T03:59:11.561Z,80.58
2024-05-09T04:00:17.896Z,80.32
2024-05-09T04:01:11.728Z,80.28
2024-05-09T04:02:11.823Z,80.17
2024-05-09T04:03:13.143Z,80.13
2024-05-09T04:04:11.810Z,80.13
2024-05-09T04:05:11.847Z,80.09
2024-05-09T04:06:11.849Z,79.97
2024-05-09T04:07:11.896Z,79.97
2024-05-09T04:08:12.084Z,80.01
2024-05-09T04:09:11.985Z,79.91
2024-05-09T04:10:20.692Z,79.94
2024-05-09T04:11:12.193Z,80.04
2024-05-09T04:12:12.342Z,80.10
2024-05-09T04:13:12.232Z,80.10
2024-05-09T04:14:12.264Z,80.15
2024-05-09T04:15:13.586Z,80.18
2024-05-09T04:16:12.318Z,80.06
2024-05-09T04:17:12.500Z,80.06
2024-05-09T04:18:12.749Z,80.08
2024-05-09T04:19:12.687Z,79.98
2024-05-09T04:20:21.364Z,80.05
2024-05-09T04:21:12.696Z,80.12
2024-05-09T04:22:12.687Z,80.16
2024-05-09T04:23:13.553Z,80.02
2024-05-09T04:24:12.767Z,80.06
2024-05-09T04:25:12.825Z,79.90
2024-05-09T04:26:12.982Z,79.71
2024-05-09T04:27:12.947Z,79.63
2024-05-09T04:28:13.055Z,79.77
2024-05-09T04:29:13.162Z,79.74
2024-05-09T04:30:21.598Z,79.58
2024-05-09T04:31:13.321Z,79.65
2024-05-09T04:32:13.440Z,79.60
2024-05-09T04:33:14.626Z,79.36
2024-05-09T04:34:13.517Z,79.38
2024-05-09T04:35:13.601Z,79.24
2024-05-09T04:36:13.532Z,79.38
2024-05-09T04:37:13.605Z,79.32
2024-05-09T04:38:14.505Z,79.24
2024-05-09T04:39:13.768Z,79.36
2024-05-09T04:40:24.142Z,79.48
2024-05-09T04:41:13.959Z,79.55
2024-05-09T04:42:13.970Z,79.46
2024-05-09T04:43:14.195Z,79.44
2024-05-09T04:44:14.167Z,79.41
2024-05-09T04:45:14.123Z,79.36
2024-05-09T04:46:14.213Z,79.38
2024-05-09T04:47:14.314Z,79.44
2024-05-09T04:48:14.588Z,79.50
2024-05-09T04:49:14.562Z,79.57
2024-05-09T04:50:21.194Z,79.28
2024-05-09T04:51:14.462Z,79.36
2024-05-09T04:52:14.449Z,79.34
2024-05-09T04:53:14.628Z,79.45
2024-05-09T04:54:26.063Z,79.37
2024-05-09T04:55:14.580Z,79.36
2024-05-09T04:56:14.603Z,79.25
2024-05-09T04:57:14.650Z,79.39
2024-05-09T04:58:14.706Z,79.39
2024-05-09T04:59:14.798Z,79.41
2024-05-09T05:00:21.723Z,79.39
2024-05-09T05:01:14.979Z,79.58
2024-05-09T05:02:15.008Z,79.60
2024-05-09T05:03:16.285Z,79.78
2024-05-09T05:04:15.245Z,79.74
2024-05-09T05:05:15.533Z,79.68
2024-05-09T05:06:15.159Z,79.61
2024-05-09T05:07:15.202Z,79.36
2024-05-09T05:08:15.830Z,79.13
2024-05-09T05:09:23.886Z,79.19
2024-05-09T05:10:33.074Z,79.27
2024-05-09T05:11:25.004Z,79.32
2024-05-09T05:12:25.132Z,79.16
2024-05-09T05:13:25.354Z,79.23
2024-05-09T05:14:24.998Z,79.24
2024-05-09T05:15:24.997Z,79.30
2024-05-09T05:16:25.027Z,79.37
2024-05-09T05:17:25.129Z,79.41
2024-05-09T05:18:25.139Z,79.52
2024-05-09T05:19:25.219Z,79.35
2024-05-09T05:20:32.570Z,79.33
2024-05-09T05:21:25.186Z,79.47
2024-05-09T05:22:25.124Z,79.66
2024-05-09T05:23:25.209Z,79.37
2024-05-09T05:24:25.172Z,79.37
2024-05-09T05:25:25.206Z,79.47
2024-05-09T05:26:25.279Z,79.66
2024-05-09T05:27:25.267Z,79.52
2024-05-09T05:28:25.319Z,79.13
2024-05-09T05:29:25.369Z,79.12
2024-05-09T05:30:29.235Z,79.24
2024-05-09T05:31:25.363Z,79.13
2024-05-09T05:32:25.503Z,79.11
2024-05-09T05:33:25.442Z,79.00
2024-05-09T05:34:25.393Z,78.98
2024-05-09T05:35:25.554Z,78.89
2024-05-09T05:36:25.391Z,78.81
2024-05-09T05:37:25.415Z,78.69
2024-05-09T05:38:28.190Z,78.88
2024-05-09T05:39:25.423Z,78.65
2024-05-09T05:40:33.196Z,78.24
2024-05-09T05:41:25.532Z,78.25
2024-05-09T05:42:25.451Z,77.75
2024-05-09T05:43:25.464Z,77.79
2024-05-09T05:44:25.540Z,77.52
2024-05-09T05:45:25.506Z,77.28
2024-05-09T05:46:25.519Z,77.40
2024-05-09T05:47:25.704Z,77.63
2024-05-09T05:48:25.685Z,77.39
2024-05-09T05:49:25.691Z,77.57
2024-05-09T05:50:32.484Z,77.25
2024-05-09T05:51:25.626Z,77.81
2024-05-09T05:52:25.619Z,77.94
2024-05-09T05:53:25.645Z,77.47
2024-05-09T05:54:25.632Z,77.75
2024-05-09T05:55:25.638Z,78.04
2024-05-09T05:56:25.683Z,78.13
2024-05-09T05:57:25.651Z,77.67
2024-05-09T05:58:25.652Z,77.22
2024-05-09T05:59:25.691Z,77.03
2024-05-09T06:00:30.290Z,76.97
2024-05-09T06:01:25.758Z,76.62
2024-05-09T06:02:25.802Z,76.46
2024-05-09T06:03:25.743Z,76.23
2024-05-09T06:04:25.751Z,76.16
2024-05-09T06:05:27.666Z,76.17
2024-05-09T06:06:25.730Z,76.69
2024-05-09T06:07:25.745Z,76.67
2024-05-09T06:08:28.853Z,76.59
2024-05-09T06:09:25.801Z,76.24
2024-05-09T06:10:30.485Z,76.02
2024-05-09T06:11:26.074Z,76.33
2024-05-09T06:12:26.037Z,76.48
2024-05-09T06:13:25.901Z,76.40
2024-05-09T06:14:25.944Z,76.34
2024-05-09T06:15:25.932Z,75.94
2024-05-09T06:16:25.943Z,75.94
2024-05-09T06:17:26.176Z,75.75
2024-05-09T06:18:26.307Z,75.72
2024-05-09T06:19:26.340Z,75.29
2024-05-09T06:20:34.368Z,74.38
2024-05-09T06:21:26.074Z,74.10
2024-05-09T06:22:25.997Z,74.23
2024-05-09T06:23:26.070Z,74.13
2024-05-09T06:24:26.005Z,74.37
2024-05-09T06:25:25.999Z,74.24
2024-05-09T06:26:26.061Z,74.00
2024-05-09T06:27:25.959Z,73.61
2024-05-09T06:28:25.956Z,73.58
2024-05-09T06:29:26.139Z,73.74
2024-05-09T06:30:34.790Z,73.32
2024-05-09T06:31:25.923Z,72.68
2024-05-09T06:32:26.062Z,72.66
2024-05-09T06:33:26.233Z,72.80
2024-05-09T06:34:26.068Z,72.49
2024-05-09T06:35:25.900Z,72.45
2024-05-09T06:36:25.851Z,72.62
2024-05-09T06:37:25.855Z,72.12
2024-05-09T06:38:25.879Z,72.37
2024-05-09T06:39:25.814Z,71.98
2024-05-09T06:40:34.283Z,71.61
2024-05-09T06:41:25.826Z,71.66
2024-05-09T06:42:25.779Z,72.07
2024-05-09T06:43:25.788Z,71.78
2024-05-09T06:44:25.797Z,71.41
2024-05-09T06:45:25.759Z,71.77
2024-05-09T06:46:25.731Z,72.11
2024-05-09T06:47:25.826Z,71.87
2024-05-09T06:48:25.954Z,71.39
2024-05-09T06:49:25.827Z,71.26
2024-05-09T06:50:28.391Z,71.42
2024-05-09T06:51:25.761Z,71.74
2024-05-09T06:52:25.670Z,71.61
2024-05-09T06:53:25.704Z,71.47
2024-05-09T06:54:25.663Z,71.55
2024-05-09T06:55:25.632Z,70.48
2024-05-09T06:56:25.630Z,70.80
2024-05-09T06:57:25.581Z,70.80
2024-05-09T06:58:25.575Z,71.26
2024-05-09T06:59:25.744Z,71.31
2024-05-09T07:00:34.459Z,71.15
2024-05-09T07:01:25.511Z,71.36
2024-05-09T07:02:25.599Z,71.49
2024-05-09T07:03:25.658Z,70.74
2024-05-09T07:04:25.518Z,70.99
2024-05-09T07:05:25.731Z,71.46
2024-05-09T07:06:25.406Z,71.95
2024-05-09T07:07:25.410Z,71.84
2024-05-09T07:08:25.457Z,70.88
2024-05-09T07:09:25.391Z,70.85
2024-05-09T07:10:32.411Z,71.51
2024-05-09T07:11:25.526Z,71.23
2024-05-09T07:12:25.536Z,71.78
2024-05-09T07:13:25.425Z,71.56
2024-05-09T07:14:25.454Z,71.81
2024-05-09T07:15:25.449Z,71.94
2024-05-09T07:16:25.478Z,72.30
2024-05-09T07:17:25.612Z,72.50
2024-05-09T07:18:25.599Z,72.34
2024-05-09T07:19:25.587Z,71.74
2024-05-09T07:20:33.769Z,72.21
2024-05-09T07:21:25.526Z,71.60
2024-05-09T07:22:25.471Z,70.74
2024-05-09T07:23:25.507Z,71.19
2024-05-09T07:24:25.456Z,71.16
2024-05-09T07:25:25.461Z,70.42
2024-05-09T07:26:25.503Z,70.75
2024-05-09T07:27:25.461Z,70.54
2024-05-09T07:28:25.449Z,69.61
2024-05-09T07:29:25.509Z,69.71
2024-05-09T07:30:32.832Z,69.09
2024-05-09T07:31:25.414Z,68.36
2024-05-09T07:32:25.492Z,68.06
2024-05-09T07:33:25.518Z,68.72
2024-05-09T07:34:25.564Z,68.05
2024-05-09T07:35:25.912Z,68.16
2024-05-09T07:36:25.260Z,68.42
2024-05-09T07:37:25.205Z,67.01
2024-05-09T07:38:25.215Z,67.54
2024-05-09T07:39:25.154Z,68.12
2024-05-09T07:40:32.943Z,67.40
2024-05-09T07:41:25.207Z,67.63
2024-05-09T07:42:25.056Z,66.38
2024-05-09T07:43:25.078Z,66.02
2024-05-09T07:44:25.095Z,66.33
2024-05-09T07:45:43.024Z,65.63
2024-05-09T07:47:20.736Z,65.39
2024-05-09T07:48:56.880Z,64.55
2024-05-09T07:53:30.562Z,65.64
2024-05-09T07:54:23.885Z,65.74
2024-05-09T07:55:25.077Z,65.22
2024-05-09T07:56:25.876Z,66.09
2024-05-09T07:57:24.886Z,65.18
2024-05-09T07:58:24.792Z,64.77
2024-05-09T07:59:24.779Z,65.00
2024-05-09T08:00:31.020Z,64.33
2024-05-09T08:01:24.859Z,63.92
2024-05-09T08:02:24.899Z,63.37
2024-05-09T08:03:24.769Z,64.63
2024-05-09T08:04:26.679Z,64.78
2024-05-09T08:05:24.752Z,63.36
2024-05-09T08:06:24.658Z,62.98
2024-05-09T08:07:24.589Z,64.15
2024-05-09T08:08:24.520Z,63.15
2024-05-09T08:09:24.483Z,62.41
2024-05-09T08:10:27.538Z,62.66
2024-05-09T08:11:24.739Z,62.37
2024-05-09T08:12:24.637Z,63.58
2024-05-09T08:13:24.726Z,64.23
2024-05-09T08:14:24.738Z,64.39
2024-05-09T08:15:24.651Z,64.95
2024-05-09T08:16:24.847Z,64.71
2024-05-09T08:17:24.911Z,65.28
2024-05-09T08:18:24.975Z,65.61
2024-05-09T08:19:24.829Z,64.71
2024-05-09T08:20:31.055Z,64.02
2024-05-09T08:21:24.802Z,63.68
2024-05-09T08:22:24.787Z,63.99
2024-05-09T08:23:24.775Z,64.40
2024-05-09T08:24:24.735Z,64.86
2024-05-09T08:25:24.804Z,65.29
2024-05-09T08:26:24.698Z,66.59
2024-05-09T08:27:24.665Z,65.13
2024-05-09T08:28:24.739Z,63.06
2024-05-09T08:29:24.627Z,62.32
2024-05-09T08:30:32.527Z,61.97
2024-05-09T08:31:24.679Z,61.90
2024-05-09T08:32:24.595Z,61.65
2024-05-09T08:33:24.650Z,62.32
2024-05-09T08:34:24.586Z,62.31
2024-05-09T08:35:24.464Z,62.20
2024-05-09T08:36:24.754Z,62.45
2024-05-09T08:37:27.847Z,62.66
2024-05-09T08:38:24.322Z,62.18
2024-05-09T08:39:24.275Z,61.74
2024-05-09T08:40:31.042Z,59.10
2024-05-09T08:41:24.168Z,58.36
2024-05-09T08:42:24.116Z,57.87
2024-05-09T08:43:24.152Z,58.38
2024-05-09T08:44:24.033Z,59.32
2024-05-09T08:45:24.046Z,59.87
2024-05-09T08:46:24.040Z,60.65
2024-05-09T08:47:24.034Z,61.09
2024-05-09T08:48:24.137Z,60.14
2024-05-09T08:49:23.953Z,59.26
2024-05-09T08:50:31.855Z,60.35
2024-05-09T08:51:23.790Z,61.33
2024-05-09T08:52:23.732Z,61.91
2024-05-09T08:53:23.715Z,61.88
2024-05-09T08:54:23.692Z,61.45
2024-05-09T08:55:23.665Z,62.05
2024-05-09T08:56:23.652Z,60.85
2024-05-09T08:57:23.641Z,59.82
2024-05-09T08:58:23.623Z,59.66
2024-05-09T08:59:23.581Z,59.36
2024-05-09T09:00:33.691Z,59.56
2024-05-09T09:01:23.645Z,59.56
2024-05-09T09:02:23.571Z,58.92
2024-05-09T09:03:23.464Z,59.08
2024-05-09T09:04:23.543Z,58.92
2024-05-09T09:05:23.467Z,58.71
2024-05-09T09:06:23.316Z,59.51
2024-05-09T09:07:23.395Z,59.99
2024-05-09T09:08:23.284Z,61.05
2024-05-09T09:09:23.270Z,61.33
2024-05-09T09:10:29.751Z,61.31
2024-05-09T09:11:23.244Z,60.74
2024-05-09T09:12:23.214Z,60.61
2024-05-09T09:13:23.236Z,60.07
2024-05-09T09:14:23.126Z,58.97
2024-05-09T09:15:23.196Z,59.05
2024-05-09T09:16:23.375Z,59.58
2024-05-09T09:17:23.130Z,58.53
2024-05-09T09:18:23.108Z,58.60
2024-05-09T09:19:23.253Z,58.29
2024-05-09T09:20:28.711Z,58.52
2024-05-09T09:21:22.896Z,58.74
2024-05-09T09:22:22.889Z,57.73
2024-05-09T09:23:22.855Z,57.49
2024-05-09T09:24:22.744Z,57.03
2024-05-09T09:25:22.703Z,57.36
2024-05-09T09:26:22.622Z,57.90
2024-05-09T09:27:22.629Z,57.15
2024-05-09T09:28:22.579Z,56.32
2024-05-09T09:29:22.522Z,55.69
2024-05-09T09:30:34.436Z,56.10
2024-05-09T09:31:22.495Z,57.00
2024-05-09T09:32:22.430Z,56.84
2024-05-09T09:33:22.461Z,56.69
2024-05-09T09:34:22.444Z,57.03
2024-05-09T09:35:22.299Z,56.82
2024-05-09T09:36:22.237Z,56.22
2024-05-09T09:37:22.207Z,56.81
2024-05-09T09:38:22.172Z,58.22
2024-05-09T09:39:22.147Z,57.84
2024-05-09T09:40:22.424Z,57.39
2024-05-09T09:41:22.040Z,58.60
2024-05-09T09:42:22.007Z,57.50
2024-05-09T09:43:22.589Z,58.38
2024-05-09T09:44:21.959Z,58.23
2024-05-09T09:45:21.951Z,59.11
2024-05-09T09:46:21.943Z,58.50
2024-05-09T09:47:21.982Z,58.94
2024-05-09T09:48:22.372Z,58.75
2024-05-09T09:49:21.935Z,58.67
2024-05-09T09:50:27.728Z,57.26
2024-05-09T09:51:21.752Z,56.54
2024-05-09T09:52:21.922Z,56.84
2024-05-09T09:53:21.717Z,57.53
2024-05-09T09:54:21.637Z,56.46
2024-05-09T09:55:21.697Z,56.53
2024-05-09T09:56:21.589Z,58.69
2024-05-09T09:57:21.527Z,58.53
2024-05-09T09:58:21.646Z,57.59
2024-05-09T09:59:21.517Z,59.20
2024-05-09T10:00:27.112Z,59.07
2024-05-09T10:01:21.597Z,58.86
2024-05-09T10:02:21.675Z,58.30
2024-05-09T10:03:21.651Z,59.89
2024-05-09T10:04:21.500Z,59.10
2024-05-09T10:05:21.563Z,58.02
2024-05-09T10:06:21.334Z,56.08
2024-05-09T10:07:21.385Z,57.00
2024-05-09T10:08:21.268Z,56.11
2024-05-09T10:09:21.220Z,56.59
2024-05-09T10:10:27.349Z,56.01
2024-05-09T10:11:21.247Z,56.74
2024-05-09T10:12:21.187Z,57.07
2024-05-09T10:13:21.349Z,56.98
2024-05-09T10:14:21.042Z,57.60
2024-05-09T10:15:21.090Z,57.62
2024-05-09T10:16:21.176Z,56.97
2024-05-09T10:17:21.010Z,56.54
2024-05-09T10:18:21.041Z,57.46
2024-05-09T10:19:20.976Z,57.42
2024-05-09T10:20:24.768Z,59.03
2024-05-09T10:21:20.812Z,57.78
2024-05-09T10:22:20.751Z,56.95
2024-05-09T10:23:20.690Z,57.99
2024-05-09T10:24:20.650Z,58.07
2024-05-09T10:25:20.803Z,57.22
2024-05-09T10:26:20.582Z,57.46
2024-05-09T10:27:20.544Z,57.34
2024-05-09T10:28:20.523Z,55.48
2024-05-09T10:29:20.443Z,54.57
2024-05-09T10:30:26.127Z,54.15
2024-05-09T10:31:20.463Z,53.51
2024-05-09T10:32:20.371Z,53.01
2024-05-09T10:33:20.429Z,53.75
2024-05-09T10:34:20.704Z,52.70
2024-05-09T10:35:20.246Z,53.80
2024-05-09T10:36:20.161Z,53.39
2024-05-09T10:37:20.272Z,53.27
2024-05-09T10:38:20.091Z,53.92
2024-05-09T10:39:21.302Z,54.69
2024-05-09T10:40:26.037Z,55.15
2024-05-09T10:41:19.974Z,53.88
2024-05-09T10:42:19.953Z,56.44
2024-05-09T10:43:20.192Z,55.26
2024-05-09T10:44:19.881Z,55.47
2024-05-09T10:45:19.925Z,54.49
2024-05-09T10:46:20.304Z,54.51
2024-05-09T10:47:19.840Z,55.45
2024-05-09T10:48:19.828Z,55.57
2024-05-09T10:49:19.772Z,55.12
2024-05-09T10:50:25.723Z,55.81
2024-05-09T10:51:20.757Z,55.69
2024-05-09T10:52:19.730Z,55.02
2024-05-09T10:53:19.567Z,55.08
2024-05-09T10:54:19.501Z,54.85
2024-05-09T10:55:19.564Z,55.30
2024-05-09T10:56:19.370Z,54.65
2024-05-09T10:57:19.316Z,54.65
2024-05-09T10:58:19.343Z,54.67
2024-05-09T10:59:19.240Z,54.12
2024-05-09T11:00:27.453Z,53.52
2024-05-09T11:01:19.206Z,54.64
2024-05-09T11:02:19.239Z,53.48
2024-05-09T11:03:19.165Z,54.13
2024-05-09T11:04:19.178Z,53.71
2024-05-09T11:05:19.228Z,53.79
2024-05-09T11:06:18.899Z,54.28
2024-05-09T11:07:18.938Z,54.53
2024-05-09T11:08:18.805Z,53.83
2024-05-09T11:09:18.749Z,53.99
2024-05-09T11:10:27.114Z,53.33
2024-05-09T11:11:18.692Z,54.09
2024-05-09T11:12:20.603Z,52.62
2024-05-09T11:13:18.581Z,53.45
2024-05-09T11:14:18.491Z,53.48
2024-05-09T11:15:18.589Z,52.82
2024-05-09T11:16:18.494Z,52.97
2024-05-09T11:17:18.387Z,53.53
2024-05-09T11:18:19.794Z,53.04
2024-05-09T11:19:18.345Z,53.02
2024-05-09T11:20:26.761Z,54.36
2024-05-09T11:21:18.144Z,55.37
2024-05-09T11:22:18.115Z,54.79
2024-05-09T11:23:18.055Z,55.63
2024-05-09T11:24:18.007Z,56.16
2024-05-09T11:25:18.072Z,54.18
2024-05-09T11:26:17.894Z,54.45
2024-05-09T11:27:17.856Z,54.26
2024-05-09T11:28:17.944Z,53.55
2024-05-09T11:29:19.613Z,53.75
2024-05-09T11:30:26.584Z,53.95
2024-05-09T11:31:18.044Z,53.83
2024-05-09T11:32:17.702Z,54.49
2024-05-09T11:33:17.681Z,53.57
2024-05-09T11:34:17.633Z,54.01
2024-05-09T11:35:17.638Z,53.18
2024-05-09T11:36:17.522Z,53.88
2024-05-09T11:37:17.727Z,53.82
2024-05-09T11:38:17.462Z,53.89
2024-05-09T11:39:17.427Z,54.10
2024-05-09T11:40:25.171Z,54.15
2024-05-09T11:41:17.400Z,54.57
2024-05-09T11:42:17.359Z,54.53
2024-05-09T11:43:17.442Z,54.98
2024-05-09T11:44:17.264Z,54.78
2024-05-09T11:45:17.296Z,55.23
2024-05-09T11:46:17.402Z,55.25
2024-05-09T11:47:17.203Z,54.41
2024-05-09T11:48:17.188Z,54.00
2024-05-09T11:49:17.223Z,53.58
2024-05-09T11:50:26.732Z,53.11
2024-05-09T11:51:16.973Z,53.69
2024-05-09T11:52:17.141Z,54.66
2024-05-09T11:53:16.906Z,53.97
2024-05-09T11:54:16.872Z,54.45
2024-05-09T11:55:17.033Z,54.40
2024-05-09T11:56:16.815Z,54.19
2024-05-09T11:57:16.799Z,54.42
2024-05-09T11:58:17.000Z,55.06
2024-05-09T11:59:16.713Z,54.25
2024-05-09T12:00:24.610Z,53.54
2024-05-09T12:01:16.817Z,53.18
2024-05-09T12:02:17.033Z,52.97
2024-05-09T12:03:16.725Z,53.49
2024-05-09T12:04:16.916Z,53.54
2024-05-09T12:05:16.848Z,54.57
2024-05-09T12:06:16.727Z,54.96
2024-05-09T12:07:16.616Z,55.90
2024-05-09T12:08:16.604Z,56.24
2024-05-09T12:09:16.500Z,56.26
2024-05-09T12:10:19.872Z,55.99
2024-05-09T12:11:16.774Z,56.04
2024-05-09T12:12:16.417Z,54.88
2024-05-09T12:13:16.418Z,55.05
2024-05-09T12:14:16.219Z,55.23
2024-05-09T12:15:16.227Z,55.29
2024-05-09T12:16:16.407Z,55.47
2024-05-09T12:17:16.206Z,55.32
2024-05-09T12:18:16.187Z,55.74
2024-05-09T12:19:16.106Z,55.24
2024-05-09T12:20:21.582Z,55.51
2024-05-09T12:21:16.028Z,55.43
2024-05-09T12:22:16.061Z,55.71
2024-05-09T12:23:15.981Z,55.38
2024-05-09T12:24:18.242Z,54.66
2024-05-09T12:25:16.182Z,54.68
2024-05-09T12:26:15.960Z,53.81
2024-05-09T12:27:15.884Z,53.43
2024-05-09T12:28:16.025Z,54.54
2024-05-09T12:29:15.853Z,54.43
2024-05-09T12:30:24.656Z,54.70
2024-05-09T12:31:15.841Z,54.12
2024-05-09T12:32:15.886Z,55.13
2024-05-09T12:33:15.929Z,55.30
2024-05-09T12:34:15.852Z,54.38
2024-05-09T12:35:15.806Z,54.32
2024-05-09T12:36:15.714Z,55.10
2024-05-09T12:37:15.768Z,55.62
2024-05-09T12:38:15.738Z,56.08
2024-05-09T12:39:15.651Z,54.69
2024-05-09T12:40:22.989Z,54.63
2024-05-09T12:41:15.589Z,55.23
2024-05-09T12:42:26.405Z,56.00
2024-05-09T12:43:15.653Z,55.15
2024-05-09T12:44:15.522Z,55.03
2024-05-09T12:45:15.577Z,54.94
2024-05-09T12:46:15.520Z,55.58
2024-05-09T12:47:15.511Z,55.22
2024-05-09T12:48:15.586Z,55.06
2024-05-09T12:49:18.707Z,55.75
2024-05-09T12:50:22.390Z,56.17
2024-05-09T12:51:15.357Z,56.18
2024-05-09T12:52:15.425Z,56.20
2024-05-09T12:53:15.321Z,54.45
2024-05-09T12:54:15.300Z,55.07
2024-05-09T12:55:15.392Z,55.21
2024-05-09T12:56:15.200Z,55.05
2024-05-09T12:57:15.165Z,54.96
2024-05-09T12:58:15.305Z,54.61